Time,TemperatureF,DewpointF,PressureIn,WindDirection,WindDirectionDegrees,WindSpeedMPH,WindSpeedGustMPH,Humidity,HourlyPrecipIn,Conditions,Clouds,dailyrainin,SoftwareType,DateUTC
2013-11-04 00:09:00,52.2,24.0,29.91,NE,43,14.0,-999.0,34,-99.99,,,0.00,weatherlink.com 1.10,2013-11-04 08:09:00,
2013-11-04 00:23:00,51.8,24.0,29.90,North,360,9.0,-999.0,34,-99.99,,,0.00,weatherlink.com 1.10,2013-11-04 08:23:00,
2013-11-04 00:38:00,51.0,24.0,29.90,NNE,17,0.0,-999.0,35,-99.99,,,0.00,weatherlink.com 1.10,2013-11-04 08:38:00,
2013-11-04 00:53:00,51.0,24.0,29.90,North,5,5.0,-999.0,35,-99.99,,,0.00,weatherlink.com 1.10,2013-11-04 08:53:00,
2013-11-04 01:08:00,51.8,21.0,29.90,NNW,332,6.0,-999.0,30,-99.99,,,0.00,weatherlink.com 1.10,2013-11-04 09:08:00,
2013-11-04 01:23:00,52.8,19.0,29.90,ENE,63,3.0,-999.0,27,-99.99,,,0.00,weatherlink.com 1.10,2013-11-04 09:23:00,
2013-11-04 01:38:00,52.8,19.0,29.90,NE,34,3.0,-999.0,27,-99.99,,,0.00,weatherlink.com 1.10,2013-11-04 09:38:00,
2013-11-04 01:53:00,52.1,19.0,29.90,NE,55,0.0,-999.0,27,-99.99,,,0.00,weatherlink.com 1.10,2013-11-04 09:53:00,
2013-11-04 02:08:00,52.3,17.0,29.90,NE,55,3.0,-999.0,25,-99.99,,,0.00,weatherlink.com 1.10,2013-11-04 10:08:00,
2013-11-04 02:24:00,52.8,18.0,29.90,North,360,0.0,-999.0,25,-99.99,,,0.00,weatherlink.com 1.10,2013-11-04 10:24:00,
2013-11-04 02:38:00,52.7,18.0,29.89,North,9,0.0,-999.0,25,-99.99,,,0.00,weatherlink.com 1.10,2013-11-04 10:38:00,
2013-11-04 02:53:00,52.3,18.0,29.89,NNE,17,2.0,-999.0,26,-99.99,,,0.00,weatherlink.com 1.10,2013-11-04 10:53:00,
2013-11-04 03:08:00,52.4,18.0,29.89,North,5,1.0,-999.0,26,-99.99,,,0.00,weatherlink.com 1.10,2013-11-04 11:08:00,
2013-11-04 03:23:00,52.1,19.0,29.89,ESE,120,0.0,-999.0,27,-99.99,,,0.00,weatherlink.com 1.10,2013-11-04 11:23:00,
2013-11-04 03:38:00,52.0,19.0,29.89,NW,313,0.0,-999.0,27,-99.99,,,0.00,weatherlink.com 1.10,2013-11-04 11:38:00,
2013-11-04 03:53:00,52.0,19.0,29.89,North,9,0.0,-999.0,27,-99.99,,,0.00,weatherlink.com 1.10,2013-11-04 11:53:00,
2013-11-04 04:08:00,52.1,19.0,29.89,NNE,32,0.0,-999.0,27,-99.99,,,0.00,weatherlink.com 1.10,2013-11-04 12:08:00,
2013-11-04 04:23:00,51.4,19.0,29.89,North,360,1.0,-999.0,28,-99.99,,,0.00,weatherlink.com 1.10,2013-11-04 12:23:00,
2013-11-04 04:38:00,51.1,19.0,29.89,NE,55,0.0,-999.0,28,-99.99,,,0.00,weatherlink.com 1.10,2013-11-04 12:38:00,
2013-11-04 04:53:00,51.1,18.0,29.90,NE,51,0.0,-999.0,27,-99.99,,,0.00,weatherlink.com 1.10,2013-11-04 12:53:00,
2013-11-04 05:08:00,50.9,19.0,29.89,NE,51,0.0,-999.0,28,-99.99,,,0.00,weatherlink.com 1.10,2013-11-04 13:08:00,
2013-11-04 05:23:00,50.9,19.0,29.90,North,360,0.0,-999.0,28,-99.99,,,0.00,weatherlink.com 1.10,2013-11-04 13:23:00,
2013-11-04 05:38:00,51.1,19.0,29.90,ESE,103,0.0,-999.0,28,-99.99,,,0.00,weatherlink.com 1.10,2013-11-04 13:38:00,
2013-11-04 05:53:00,51.4,19.0,29.91,NNE,17,0.0,-999.0,28,-99.99,,,0.00,weatherlink.com 1.10,2013-11-04 13:53:00,
2013-11-04 06:08:00,51.0,19.0,29.91,NNE,17,0.0,-999.0,28,-99.99,,,0.00,weatherlink.com 1.10,2013-11-04 14:08:00,
2013-11-04 06:23:00,50.8,19.0,29.92,ENE,61,0.0,-999.0,28,-99.99,,,0.00,weatherlink.com 1.10,2013-11-04 14:23:00,
2013-11-04 06:38:00,50.7,19.0,29.92,NE,56,0.0,-999.0,29,-99.99,,,0.00,weatherlink.com 1.10,2013-11-04 14:38:00,
2013-11-04 06:53:00,50.6,19.0,29.93,NE,55,0.0,-999.0,29,-99.99,,,0.00,weatherlink.com 1.10,2013-11-04 14:53:00,
2013-11-04 07:08:00,50.7,18.0,29.93,East,90,0.0,-999.0,28,-99.99,,,0.00,weatherlink.com 1.10,2013-11-04 15:08:00,
2013-11-04 07:23:00,51.4,20.0,29.94,NNW,346,3.0,-999.0,29,-99.99,,,0.00,weatherlink.com 1.10,2013-11-04 15:23:00,
2013-11-04 07:38:00,54.3,22.0,29.95,ENE,78,2.0,-999.0,28,-99.99,,,0.00,weatherlink.com 1.10,2013-11-04 15:38:00,
2013-11-04 07:53:00,55.5,22.0,29.95,ENE,61,4.0,-999.0,27,-99.99,,,0.00,weatherlink.com 1.10,2013-11-04 15:53:00,
2013-11-04 08:08:00,55.0,23.0,29.96,NNW,347,0.0,-999.0,29,-99.99,,,0.00,weatherlink.com 1.10,2013-11-04 16:08:00,
2013-11-04 08:23:00,54.4,23.0,29.97,NNE,30,0.0,-999.0,30,-99.99,,,0.00,weatherlink.com 1.10,2013-11-04 16:23:00,
2013-11-04 08:38:00,57.8,23.0,29.97,North,360,1.0,-999.0,26,-99.99,,,0.00,weatherlink.com 1.10,2013-11-04 16:38:00,
2013-11-04 08:53:00,56.6,24.0,29.97,SSW,209,0.0,-999.0,28,-99.99,,,0.00,weatherlink.com 1.10,2013-11-04 16:53:00,
2013-11-04 09:08:00,56.7,24.0,29.97,SE,126,0.0,-999.0,28,-99.99,,,0.00,weatherlink.com 1.10,2013-11-04 17:08:00,
2013-11-04 09:23:00,57.7,23.0,29.97,NE,54,0.0,-999.0,26,-99.99,,,0.00,weatherlink.com 1.10,2013-11-04 17:23:00,
2013-11-04 09:38:00,56.8,27.0,29.97,SSW,192,0.0,-999.0,32,-99.99,,,0.00,weatherlink.com 1.10,2013-11-04 17:38:00,
2013-11-04 09:53:00,56.6,24.0,29.97,South,182,0.0,-999.0,29,-99.99,,,0.00,weatherlink.com 1.10,2013-11-04 17:53:00,
2013-11-04 10:09:00,57.8,27.0,29.97,SSE,162,0.0,-999.0,31,-99.99,,,0.00,weatherlink.com 1.10,2013-11-04 18:09:00,
2013-11-04 10:24:00,57.9,30.0,29.97,SW,223,0.0,-999.0,35,-99.99,,,0.00,weatherlink.com 1.10,2013-11-04 18:24:00,
2013-11-04 10:39:00,58.8,27.0,29.98,ESE,115,1.0,-999.0,30,-99.99,,,0.00,weatherlink.com 1.10,2013-11-04 18:39:00,
2013-11-04 10:54:00,61.2,29.0,29.98,WSW,246,2.0,-999.0,30,-99.99,,,0.00,weatherlink.com 1.10,2013-11-04 18:54:00,
2013-11-04 11:09:00,63.8,25.0,29.97,NE,35,0.0,-999.0,23,-99.99,,,0.00,weatherlink.com 1.10,2013-11-04 19:09:00,
2013-11-04 11:24:00,64.0,31.0,29.97,WSW,244,0.0,-999.0,29,-99.99,,,0.00,weatherlink.com 1.10,2013-11-04 19:24:00,
2013-11-04 11:54:00,64.0,27.0,29.95,WSW,254,1.0,-999.0,25,-99.99,,,0.00,weatherlink.com 1.10,2013-11-04 19:54:00,
2013-11-04 12:09:00,64.5,29.0,29.95,ENE,78,0.0,-999.0,26,-99.99,,,0.00,weatherlink.com 1.10,2013-11-04 20:09:00,
2013-11-04 12:24:00,63.3,29.0,29.95,WSW,250,0.0,-999.0,28,-99.99,,,0.00,weatherlink.com 1.10,2013-11-04 20:24:00,
2013-11-04 12:39:00,65.4,29.0,29.94,ENE,67,2.0,-999.0,25,-99.99,,,0.00,weatherlink.com 1.10,2013-11-04 20:39:00,
2013-11-04 12:54:00,64.6,29.0,29.95,South,171,0.0,-999.0,26,-99.99,,,0.00,weatherlink.com 1.10,2013-11-04 20:54:00,
2013-11-04 13:09:00,65.5,28.0,29.94,NNW,342,0.0,-999.0,24,-99.99,,,0.00,weatherlink.com 1.10,2013-11-04 21:09:00,
2013-11-04 13:24:00,64.1,30.0,29.93,WSW,258,0.0,-999.0,28,-99.99,,,0.00,weatherlink.com 1.10,2013-11-04 21:24:00,
2013-11-04 13:39:00,63.7,28.0,29.94,ESE,119,0.0,-999.0,26,-99.99,,,0.00,weatherlink.com 1.10,2013-11-04 21:39:00,
2013-11-04 13:53:00,65.7,30.0,29.94,NNW,341,2.0,-999.0,26,-99.99,,,0.00,weatherlink.com 1.10,2013-11-04 21:53:00,
2013-11-04 14:09:00,65.5,33.0,29.94,NNE,23,5.0,-999.0,30,-99.99,,,0.00,weatherlink.com 1.10,2013-11-04 22:09:00,
2013-11-04 14:24:00,64.2,30.0,29.94,East,91,0.0,-999.0,28,-99.99,,,0.00,weatherlink.com 1.10,2013-11-04 22:24:00,
2013-11-04 14:39:00,64.7,30.0,29.94,NNW,342,5.0,-999.0,27,-99.99,,,0.00,weatherlink.com 1.10,2013-11-04 22:39:00,
2013-11-04 14:54:00,64.9,31.0,29.95,NNE,28,0.0,-999.0,28,-99.99,,,0.00,weatherlink.com 1.10,2013-11-04 22:54:00,
2013-11-04 15:09:00,63.6,31.0,29.95,NNE,19,1.0,-999.0,29,-99.99,,,0.00,weatherlink.com 1.10,2013-11-04 23:09:00,
2013-11-04 15:24:00,63.1,31.0,29.95,East,80,7.0,-999.0,30,-99.99,,,0.00,weatherlink.com 1.10,2013-11-04 23:24:00,
2013-11-04 15:39:00,62.6,31.0,29.96,NE,56,0.0,-999.0,31,-99.99,,,0.00,weatherlink.com 1.10,2013-11-04 23:39:00,
2013-11-04 15:54:00,61.5,30.0,29.96,ENE,61,5.0,-999.0,31,-99.99,,,0.00,weatherlink.com 1.10,2013-11-04 23:54:00,
2013-11-04 16:09:00,60.1,30.0,29.95,NNW,343,10.0,-999.0,32,-99.99,,,0.00,weatherlink.com 1.10,2013-11-05 00:09:00,
2013-11-04 16:24:00,59.0,30.0,29.96,North,360,3.0,-999.0,33,-99.99,,,0.00,weatherlink.com 1.10,2013-11-05 00:24:00,
2013-11-04 16:39:00,58.0,30.0,29.96,NNE,15,15.0,-999.0,34,-99.99,,,0.00,weatherlink.com 1.10,2013-11-05 00:39:00,
2013-11-04 16:54:00,57.0,29.0,29.96,NNE,13,12.0,-999.0,34,-99.99,,,0.00,weatherlink.com 1.10,2013-11-05 00:54:00,
2013-11-04 17:09:00,56.3,29.0,29.97,NNE,12,8.0,-999.0,35,-99.99,,,0.00,weatherlink.com 1.10,2013-11-05 01:09:00,
2013-11-04 17:24:00,55.5,29.0,29.97,North,355,10.0,-999.0,36,-99.99,,,0.00,weatherlink.com 1.10,2013-11-05 01:24:00,
2013-11-04 17:39:00,55.1,28.0,29.98,North,360,13.0,-999.0,35,-99.99,,,0.00,weatherlink.com 1.10,2013-11-05 01:39:00,
2013-11-04 17:54:00,54.9,28.0,30.00,NNE,30,17.0,-999.0,35,-99.99,,,0.00,weatherlink.com 1.10,2013-11-05 01:54:00,
2013-11-04 18:09:00,54.6,27.0,30.00,North,360,11.0,-999.0,35,-99.99,,,0.00,weatherlink.com 1.10,2013-11-05 02:09:00,
2013-11-04 18:24:00,54.6,27.0,30.02,North,355,9.0,-999.0,35,-99.99,,,0.00,weatherlink.com 1.10,2013-11-05 02:24:00,
2013-11-04 18:39:00,54.6,27.0,30.02,North,9,6.0,-999.0,34,-99.99,,,0.00,weatherlink.com 1.10,2013-11-05 02:39:00,
2013-11-04 18:54:00,54.6,27.0,30.03,NNE,26,9.0,-999.0,34,-99.99,,,0.00,weatherlink.com 1.10,2013-11-05 02:54:00,
2013-11-04 19:09:00,54.9,26.0,30.02,NNW,348,13.0,-999.0,33,-99.99,,,0.00,weatherlink.com 1.10,2013-11-05 03:09:00,
2013-11-04 19:24:00,55.3,26.0,30.02,NNE,33,12.0,-999.0,32,-99.99,,,0.00,weatherlink.com 1.10,2013-11-05 03:24:00,
2013-11-04 19:40:00,55.7,25.0,30.03,NE,44,9.0,-999.0,31,-99.99,,,0.00,weatherlink.com 1.10,2013-11-05 03:40:00,
2013-11-04 19:54:00,56.1,25.0,30.03,ENE,59,9.0,-999.0,30,-99.99,,,0.00,weatherlink.com 1.10,2013-11-05 03:54:00,
2013-11-04 20:08:00,56.5,24.0,30.03,ENE,67,6.0,-999.0,29,-99.99,,,0.00,weatherlink.com 1.10,2013-11-05 04:08:00,
2013-11-04 20:25:00,56.4,23.0,30.04,NE,37,0.0,-999.0,28,-99.99,,,0.00,weatherlink.com 1.10,2013-11-05 04:25:00,
2013-11-04 20:38:00,56.5,24.0,30.05,NE,47,0.0,-999.0,28,-99.99,,,0.00,weatherlink.com 1.10,2013-11-05 04:38:00,
2013-11-04 21:08:00,56.2,23.0,30.05,NNE,32,1.0,-999.0,28,-99.99,,,0.00,weatherlink.com 1.10,2013-11-05 05:08:00,
2013-11-04 21:23:00,56.6,24.0,30.05,NNE,13,0.0,-999.0,28,-99.99,,,0.00,weatherlink.com 1.10,2013-11-05 05:23:00,
2013-11-04 21:38:00,56.6,24.0,30.06,NNE,28,1.0,-999.0,28,-99.99,,,0.00,weatherlink.com 1.10,2013-11-05 05:38:00,
2013-11-04 21:53:00,56.7,24.0,30.07,East,79,4.0,-999.0,28,-99.99,,,0.00,weatherlink.com 1.10,2013-11-05 05:53:00,
2013-11-04 22:08:00,56.8,24.0,30.07,NE,56,0.0,-999.0,28,-99.99,,,0.00,weatherlink.com 1.10,2013-11-05 06:08:00,
2013-11-04 22:23:00,56.7,24.0,30.07,NE,37,6.0,-999.0,28,-99.99,,,0.00,weatherlink.com 1.10,2013-11-05 06:23:00,
2013-11-04 22:38:00,57.5,24.0,30.06,South,188,1.0,-999.0,27,-99.99,,,0.00,weatherlink.com 1.10,2013-11-05 06:38:00,
2013-11-04 22:53:00,57.7,24.0,30.07,SW,223,0.0,-999.0,27,-99.99,,,0.00,weatherlink.com 1.10,2013-11-05 06:53:00,
2013-11-04 23:08:00,57.8,24.0,30.07,NE,44,0.0,-999.0,27,-99.99,,,0.00,weatherlink.com 1.10,2013-11-05 07:08:00,
2013-11-04 23:23:00,58.0,24.0,30.06,ESE,117,0.0,-999.0,27,-99.99,,,0.00,weatherlink.com 1.10,2013-11-05 07:23:00,
2013-11-04 23:38:00,57.2,24.0,30.07,SSE,148,0.0,-999.0,28,-99.99,,,0.00,weatherlink.com 1.10,2013-11-05 07:38:00,
2013-11-04 23:53:00,55.7,24.0,30.08,NE,34,0.0,-999.0,29,-99.99,,,0.00,weatherlink.com 1.10,2013-11-05 07:53:00,